createdAt,value
2023-01-09T00:01:27.600Z,2.17
2023-01-09T00:03:55.549Z,2.14
2023-01-09T00:06:23.790Z,1.96
2023-01-09T00:08:51.650Z,2.08
2023-01-09T00:11:19.654Z,2.16
2023-01-09T00:13:48.109Z,2.12
2023-01-09T00:16:16.556Z,1.99
2023-01-09T00:18:45.844Z,2.12
2023-01-09T00:21:14.797Z,1.68
2023-01-09T00:23:42.790Z,1.76
2023-01-09T00:26:13.678Z,1.95
2023-01-09T00:28:42.066Z,1.90
2023-01-09T00:31:10.380Z,2.12
2023-01-09T00:33:42.048Z,2.27
2023-01-09T00:36:12.036Z,2.16
2023-01-09T00:38:41.212Z,2.23
2023-01-09T00:41:13.061Z,1.71
2023-01-09T00:43:46.633Z,2.02
2023-01-09T00:46:16.121Z,1.74
2023-01-09T00:48:47.629Z,1.99
2023-01-09T00:51:18.422Z,1.57
2023-01-09T00:53:47.234Z,1.86
2023-01-09T00:56:17.956Z,1.67
2023-01-09T00:58:46.556Z,1.58
2023-01-09T01:01:14.739Z,1.69
2023-01-09T01:03:42.748Z,1.91
2023-01-09T01:06:27.912Z,1.80
2023-01-09T01:08:57.202Z,1.97
2023-01-09T01:11:25.476Z,2.03
2023-01-09T01:13:53.483Z,1.95
2023-01-09T01:16:21.443Z,1.98
2023-01-09T01:18:49.352Z,1.90
2023-01-09T01:21:18.184Z,1.95
2023-01-09T01:23:46.058Z,1.95
2023-01-09T01:26:17.308Z,1.90
2023-01-09T01:28:45.622Z,0.84
2023-01-09T01:31:18.144Z,1.93
2023-01-09T01:33:46.245Z,1.95
2023-01-09T01:36:16.216Z,1.84
2023-01-09T01:38:44.436Z,1.66
2023-01-09T01:41:12.329Z,1.65
2023-01-09T01:43:56.298Z,1.68
2023-01-09T01:46:24.326Z,1.63
2023-01-09T01:49:00.150Z,1.66
2023-01-09T01:51:31.931Z,1.63
2023-01-09T01:54:04.963Z,1.48
2023-01-09T01:56:37.544Z,1.56
2023-01-09T01:59:10.875Z,1.63
2023-01-09T02:01:41.267Z,1.77
2023-01-09T02:04:10.397Z,1.52
2023-01-09T02:06:39.221Z,1.87
2023-01-09T02:09:08.006Z,1.89
2023-01-09T02:11:36.084Z,1.46
2023-01-09T02:14:04.322Z,1.68
2023-01-09T02:16:43.302Z,1.41
2023-01-09T02:19:34.771Z,1.60
2023-01-09T02:22:13.529Z,1.62
2023-01-09T02:25:06.254Z,1.66
2023-01-09T02:28:15.554Z,1.18
2023-01-09T02:30:47.657Z,1.10
2023-01-09T02:33:40.269Z,1.35
2023-01-09T02:36:20.603Z,1.37
2023-01-09T02:38:57.431Z,1.41
2023-01-09T02:41:33.321Z,1.36
2023-01-09T02:44:15.811Z,1.32
2023-01-09T02:46:45.109Z,1.35
2023-01-09T02:49:13.983Z,1.11
2023-01-09T02:51:52.592Z,0.80
2023-01-09T02:54:34.223Z,1.21
2023-01-09T02:57:23.170Z,1.08
2023-01-09T03:00:07.624Z,0.99
2023-01-09T03:02:44.972Z,0.89
2023-01-09T03:05:18.766Z,0.79
2023-01-09T03:07:51.573Z,0.89
2023-01-09T03:10:22.560Z,0.11
2023-01-09T03:12:54.443Z,0.97
2023-01-09T03:15:25.942Z,1.06
2023-01-09T03:17:56.494Z,0.83
2023-01-09T03:20:27.813Z,0.81
2023-01-09T03:22:57.325Z,0.76
2023-01-09T03:25:26.164Z,0.63
2023-01-09T03:27:57.965Z,0.76
2023-01-09T03:30:27.573Z,0.79
2023-01-09T03:32:58.734Z,0.76
2023-01-09T03:35:27.237Z,0.48
2023-01-09T03:37:55.571Z,0.64
2023-01-09T03:40:23.489Z,0.57
2023-01-09T03:42:51.320Z,0.45
2023-01-09T03:45:19.199Z,0.46
2023-01-09T03:47:47.133Z,0.41
2023-01-09T03:50:16.981Z,0.34
2023-01-09T03:52:44.862Z,0.35
2023-01-09T03:55:14.812Z,0.39
2023-01-09T03:57:45.548Z,0.34
2023-01-09T04:00:14.428Z,-0.13
2023-01-09T04:02:43.247Z,0.09
2023-01-09T04:05:11.652Z,0.16
2023-01-09T04:07:40.923Z,0.32
2023-01-09T04:10:09.877Z,0.32
2023-01-09T04:12:37.757Z,0.35
2023-01-09T04:15:06.569Z,0.43
2023-01-09T04:17:34.528Z,-0.08
2023-01-09T04:20:02.443Z,0.16
2023-01-09T04:22:31.416Z,0.53
2023-01-09T04:25:00.718Z,0.47
2023-01-09T04:27:28.736Z,0.11
2023-01-09T04:29:56.597Z,0.29
2023-01-09T04:32:24.449Z,0.29
2023-01-09T04:34:52.281Z,0.31
2023-01-09T04:37:20.163Z,0.43
2023-01-09T04:39:48.260Z,0.41
2023-01-09T04:42:17.506Z,0.51
2023-01-09T04:44:45.333Z,0.47
2023-01-09T04:47:13.639Z,-0.25
2023-01-09T04:49:41.649Z,0.26
2023-01-09T04:52:09.651Z,0.14
2023-01-09T04:54:39.542Z,0.10
2023-01-09T04:57:07.639Z,0.17
2023-01-09T04:59:37.117Z,0.22
2023-01-09T05:02:05.064Z,0.24
2023-01-09T05:04:33.246Z,0.14
2023-01-09T05:07:01.122Z,0.07
2023-01-09T05:09:29.315Z,0.11
2023-01-09T05:11:57.204Z,0.23
2023-01-09T05:14:25.200Z,-0.24
2023-01-09T05:16:54.460Z,-0.34
2023-01-09T05:19:23.696Z,-0.03
2023-01-09T05:21:51.873Z,-0.29
2023-01-09T05:24:19.953Z,-0.03
2023-01-09T05:26:48.080Z,-0.11
2023-01-09T05:29:15.920Z,-0.10
2023-01-09T05:31:44.056Z,-0.04
2023-01-09T05:34:13.305Z,-0.21
2023-01-09T05:36:41.209Z,-0.19
2023-01-09T05:39:09.098Z,-0.01
2023-01-09T05:41:37.014Z,-0.13
2023-01-09T05:44:05.672Z,0.13
2023-01-09T05:46:34.041Z,0.02
2023-01-09T05:49:02.178Z,-0.22
2023-01-09T05:51:32.140Z,0.09
2023-01-09T05:54:00.322Z,0.22
2023-01-09T05:56:30.065Z,0.17
2023-01-09T05:58:58.011Z,-0.49
2023-01-09T06:01:25.921Z,0.02
2023-01-09T06:03:53.870Z,-0.12
2023-01-09T06:06:22.798Z,0.09
2023-01-09T06:08:52.031Z,0.29
2023-01-09T06:11:19.931Z,0.33
2023-01-09T06:13:47.954Z,0.62
2023-01-09T06:16:15.946Z,0.22
2023-01-09T06:18:43.862Z,0.28
2023-01-09T06:21:11.754Z,0.50
2023-01-09T06:23:39.745Z,0.57
2023-01-09T06:26:09.000Z,0.06
2023-01-09T06:28:36.939Z,0.32
2023-01-09T06:31:05.267Z,0.23
2023-01-09T06:33:33.431Z,0.41
2023-01-09T06:36:01.360Z,0.32
2023-01-09T06:38:29.233Z,0.64
2023-01-09T06:40:57.136Z,0.80
2023-01-09T06:43:26.399Z,0.81
2023-01-09T06:45:54.635Z,0.87
2023-01-09T06:48:24.998Z,1.08
2023-01-09T06:50:52.899Z,1.04
2023-01-09T06:53:21.584Z,1.15
2023-01-09T06:55:49.495Z,1.48
2023-01-09T06:58:17.526Z,1.51
2023-01-09T07:00:46.848Z,1.79
2023-01-09T07:03:19.739Z,1.79
2023-01-09T07:05:48.215Z,2.15
2023-01-09T07:08:16.304Z,2.61
2023-01-09T07:10:44.726Z,2.68
2023-01-09T07:13:12.897Z,2.99
2023-01-09T07:15:40.848Z,3.40
2023-01-09T07:18:10.211Z,3.57
2023-01-09T07:20:41.277Z,3.95
2023-01-09T07:23:10.364Z,2.48
2023-01-09T07:25:38.515Z,4.60
2023-01-09T07:28:06.746Z,4.87
2023-01-09T07:30:34.668Z,4.91
2023-01-09T07:33:04.022Z,4.32
2023-01-09T07:35:33.971Z,3.94
2023-01-09T07:38:01.850Z,3.53
2023-01-09T07:40:29.792Z,3.48
2023-01-09T07:42:57.739Z,3.59
2023-01-09T07:45:25.591Z,4.01
2023-01-09T07:47:53.558Z,4.35
2023-01-09T07:50:21.550Z,4.90
2023-01-09T07:52:50.772Z,4.96
2023-01-09T07:55:18.916Z,5.19
2023-01-09T07:57:51.179Z,4.35
2023-01-09T08:00:21.119Z,5.70
2023-01-09T08:02:53.812Z,5.88
2023-01-09T08:05:22.405Z,6.25
2023-01-09T08:07:54.114Z,6.24
2023-01-09T08:10:22.187Z,6.58
2023-01-09T08:12:50.692Z,3.20
2023-01-09T08:15:18.632Z,5.02
2023-01-09T08:17:47.250Z,4.50
2023-01-09T08:20:17.002Z,5.11
2023-01-09T08:22:49.617Z,3.90
2023-01-09T08:25:19.549Z,5.47
2023-01-09T08:27:47.852Z,5.60
2023-01-09T08:30:16.684Z,5.13
2023-01-09T08:32:44.812Z,5.54
2023-01-09T08:35:12.756Z,5.86
2023-01-09T08:37:40.652Z,6.22
2023-01-09T08:40:10.177Z,6.22
2023-01-09T08:42:57.013Z,6.11
2023-01-09T08:45:42.335Z,6.57
2023-01-09T08:48:10.427Z,7.06
2023-01-09T08:50:38.358Z,7.02
2023-01-09T08:53:06.271Z,6.73
2023-01-09T08:55:34.207Z,7.29
2023-01-09T08:58:03.486Z,7.82
2023-01-09T09:00:31.646Z,8.07
2023-01-09T09:03:02.000Z,7.96
2023-01-09T09:05:31.982Z,7.28
2023-01-09T09:08:00.529Z,8.22
2023-01-09T09:10:30.294Z,8.49
2023-01-09T09:12:59.766Z,8.66
2023-01-09T09:15:29.743Z,7.46
2023-01-09T09:17:59.486Z,8.41
2023-01-09T09:20:29.665Z,8.50
2023-01-09T09:22:57.755Z,8.45
2023-01-09T09:25:25.991Z,8.36
2023-01-09T09:27:55.875Z,8.44
2023-01-09T09:30:25.195Z,8.17
2023-01-09T09:32:54.660Z,8.14
2023-01-09T09:35:22.731Z,8.91
2023-01-09T09:37:58.906Z,8.95
2023-01-09T09:40:42.862Z,9.09
2023-01-09T09:43:43.425Z,9.41
2023-01-09T09:46:20.410Z,9.17
2023-01-09T09:48:53.745Z,9.17
2023-01-09T09:51:39.507Z,8.85
2023-01-09T09:54:13.849Z,9.03
2023-01-09T09:56:49.213Z,8.89
2023-01-09T09:59:20.040Z,9.23
2023-01-09T10:01:55.235Z,9.44
2023-01-09T10:04:28.000Z,9.49
2023-01-09T10:06:59.808Z,10.15
2023-01-09T10:09:40.423Z,9.86
2023-01-09T10:12:23.179Z,9.92
2023-01-09T10:14:51.447Z,9.63
2023-01-09T10:17:36.304Z,9.81
2023-01-09T10:20:34.273Z,8.97
2023-01-09T10:23:17.436Z,9.23
2023-01-09T10:25:50.900Z,9.15
2023-01-09T10:28:35.667Z,9.11
2023-01-09T10:31:12.121Z,9.05
2023-01-09T10:33:52.566Z,8.80
2023-01-09T10:36:52.246Z,8.98
2023-01-09T10:39:23.702Z,9.77
2023-01-09T10:41:59.486Z,9.43
2023-01-09T10:44:35.299Z,9.33
2023-01-09T10:47:07.137Z,9.61
2023-01-09T10:49:36.319Z,9.83
2023-01-09T10:52:16.889Z,9.16
2023-01-09T10:54:57.839Z,9.38
2023-01-09T10:57:39.512Z,9.80
2023-01-09T11:00:15.153Z,10.11
2023-01-09T11:02:43.271Z,9.90
2023-01-09T11:05:14.050Z,9.56
2023-01-09T11:07:46.346Z,9.12
2023-01-09T11:10:15.950Z,8.98
2023-01-09T11:12:44.192Z,9.20
2023-01-09T11:15:29.119Z,9.25
2023-01-09T11:18:15.113Z,9.14
2023-01-09T11:20:43.040Z,8.92
2023-01-09T11:23:28.748Z,8.85
2023-01-09T11:25:58.961Z,8.80
2023-01-09T11:28:27.216Z,8.64
2023-01-09T11:31:00.889Z,8.17
2023-01-09T11:33:31.265Z,7.82
2023-01-09T11:36:06.054Z,8.10
2023-01-09T11:38:49.184Z,8.20
2023-01-09T11:41:22.949Z,7.75
2023-01-09T11:43:52.875Z,8.10
2023-01-09T11:46:39.640Z,7.87
2023-01-09T11:49:22.701Z,7.94
2023-01-09T11:52:16.296Z,8.14
2023-01-09T11:54:49.650Z,7.63
2023-01-09T11:57:17.973Z,7.80
2023-01-09T11:59:45.900Z,7.64
2023-01-09T12:02:41.189Z,7.74
2023-01-09T12:05:21.245Z,7.50
2023-01-09T12:08:03.055Z,7.51
2023-01-09T12:10:50.719Z,7.41
2023-01-09T12:13:32.316Z,7.43
2023-01-09T12:16:12.548Z,7.30
2023-01-09T12:18:52.301Z,7.18
2023-01-09T12:21:33.633Z,7.48
2023-01-09T12:24:18.711Z,7.13
2023-01-09T12:26:55.737Z,7.38
2023-01-09T12:29:37.900Z,7.14
2023-01-09T12:32:17.053Z,7.27
2023-01-09T12:34:59.216Z,7.37
2023-01-09T12:37:56.786Z,7.42
2023-01-09T12:40:44.148Z,7.62
2023-01-09T12:43:23.262Z,7.90
2023-01-09T12:46:03.439Z,7.95
2023-01-09T12:48:53.508Z,7.67
2023-01-09T12:51:29.551Z,7.42
2023-01-09T12:54:03.391Z,7.48
2023-01-09T12:56:35.559Z,7.22
2023-01-09T12:59:17.848Z,7.25
2023-01-09T13:01:49.219Z,7.03
2023-01-09T13:04:23.164Z,6.94
2023-01-09T13:06:55.382Z,6.74
2023-01-09T13:09:27.700Z,6.49
2023-01-09T13:12:06.176Z,6.83
2023-01-09T13:14:50.219Z,6.82
2023-01-09T13:17:24.682Z,6.79
2023-01-09T13:19:53.279Z,6.72
2023-01-09T13:22:23.803Z,6.70
2023-01-09T13:25:30.110Z,6.64
2023-01-09T13:28:01.754Z,6.60
2023-01-09T13:30:49.058Z,6.59
2023-01-09T13:33:21.377Z,6.38
2023-01-09T13:35:52.139Z,6.48
2023-01-09T13:38:23.895Z,6.19
2023-01-09T13:41:26.962Z,6.33
2023-01-09T13:44:00.825Z,6.28
2023-01-09T13:46:40.649Z,6.13
2023-01-09T13:49:55.192Z,6.08
2023-01-09T13:52:38.199Z,5.95
2023-01-09T13:55:35.604Z,5.86
2023-01-09T13:58:23.856Z,6.05
2023-01-09T14:00:57.904Z,5.94
2023-01-09T14:03:32.804Z,6.11
2023-01-09T14:06:17.608Z,6.04
2023-01-09T14:08:48.646Z,5.91
2023-01-09T14:11:23.086Z,5.74
2023-01-09T14:14:01.462Z,5.77
2023-01-09T14:16:31.770Z,5.30
2023-01-09T14:19:06.536Z,5.64
2023-01-09T14:21:50.765Z,5.57
2023-01-09T14:24:24.894Z,5.52
2023-01-09T14:26:57.119Z,5.49
2023-01-09T14:29:52.528Z,5.30
2023-01-09T14:32:45.509Z,5.46
2023-01-09T14:35:25.362Z,5.38
2023-01-09T14:38:04.407Z,5.40
2023-01-09T14:40:33.490Z,5.28
2023-01-09T14:43:15.610Z,5.22
2023-01-09T14:45:49.789Z,5.28
2023-01-09T14:48:18.500Z,5.22
2023-01-09T14:50:51.242Z,5.15
2023-01-09T14:53:23.260Z,4.74
2023-01-09T14:55:54.441Z,5.08
2023-01-09T14:58:27.944Z,4.62
2023-01-09T15:01:02.948Z,5.03
2023-01-09T15:03:37.990Z,4.97
2023-01-09T15:06:11.780Z,4.91
2023-01-09T15:08:39.834Z,4.90
2023-01-09T15:11:07.759Z,4.87
2023-01-09T15:13:38.763Z,4.82
2023-01-09T15:16:08.506Z,4.46
2023-01-09T15:18:43.243Z,4.75
2023-01-09T15:21:20.343Z,4.69
2023-01-09T15:23:48.226Z,4.63
2023-01-09T15:26:25.805Z,4.54
2023-01-09T15:28:54.732Z,4.47
2023-01-09T15:31:25.480Z,4.30
2023-01-09T15:33:54.244Z,4.40
2023-01-09T15:36:26.481Z,4.24
2023-01-09T15:38:55.605Z,4.29
2023-01-09T15:41:44.517Z,4.26
2023-01-09T15:44:17.236Z,4.22
2023-01-09T15:46:46.638Z,4.12
2023-01-09T15:49:15.499Z,4.08
2023-01-09T15:51:46.304Z,4.01
2023-01-09T15:54:16.114Z,3.85
2023-01-09T15:56:46.268Z,3.77
2023-01-09T15:59:25.126Z,3.89
2023-01-09T16:02:19.793Z,3.88
2023-01-09T16:04:48.079Z,3.84
2023-01-09T16:07:19.807Z,3.80
2023-01-09T16:09:49.900Z,3.75
2023-01-09T16:12:21.547Z,3.74
2023-01-09T16:14:53.876Z,3.59
2023-01-09T16:17:26.830Z,3.05
2023-01-09T16:19:57.865Z,3.15
2023-01-09T16:22:29.072Z,3.56
2023-01-09T16:24:58.856Z,3.06
2023-01-09T16:27:28.808Z,3.41
2023-01-09T16:29:58.988Z,3.35
2023-01-09T16:32:30.779Z,3.55
2023-01-09T16:35:04.674Z,3.46
2023-01-09T16:37:36.069Z,3.51
2023-01-09T16:40:24.204Z,3.59
2023-01-09T16:43:07.099Z,3.64
2023-01-09T16:45:37.521Z,3.25
2023-01-09T16:48:13.572Z,3.53
2023-01-09T16:50:42.579Z,3.55
2023-01-09T16:53:16.491Z,2.01
2023-01-09T16:55:44.936Z,3.61
2023-01-09T16:58:18.393Z,3.48
2023-01-09T17:00:47.903Z,3.60
2023-01-09T17:03:16.813Z,3.60
2023-01-09T17:05:45.164Z,3.63
2023-01-09T17:08:22.312Z,3.67
2023-01-09T17:10:50.475Z,3.67
2023-01-09T17:13:18.336Z,3.22
2023-01-09T17:15:46.828Z,3.57
2023-01-09T17:18:16.831Z,3.67
2023-01-09T17:20:46.027Z,3.61
2023-01-09T17:23:14.893Z,3.54
2023-01-09T17:26:01.975Z,3.55
2023-01-09T17:28:33.698Z,3.65
2023-01-09T17:31:02.182Z,3.59
2023-01-09T17:33:30.690Z,3.52
2023-01-09T17:35:58.698Z,3.53
2023-01-09T17:38:26.601Z,3.52
2023-01-09T17:40:56.649Z,3.52
2023-01-09T17:43:24.564Z,3.36
2023-01-09T17:45:52.648Z,2.09
2023-01-09T17:48:25.121Z,3.53
2023-01-09T17:50:52.951Z,3.56
2023-01-09T17:53:22.692Z,3.55
2023-01-09T17:55:50.685Z,3.55
2023-01-09T17:58:26.366Z,3.33
2023-01-09T18:00:54.398Z,3.59
2023-01-09T18:03:23.222Z,3.60
2023-01-09T18:05:52.796Z,3.42
2023-01-09T18:08:20.730Z,3.60
2023-01-09T18:10:49.067Z,3.64
2023-01-09T18:13:17.849Z,3.40
2023-01-09T18:15:47.606Z,3.50
2023-01-09T18:18:16.392Z,3.62
2023-01-09T18:20:46.295Z,3.32
2023-01-09T18:23:14.712Z,3.20
2023-01-09T18:25:43.511Z,3.59
2023-01-09T18:28:15.165Z,3.56
2023-01-09T18:30:45.132Z,3.56
2023-01-09T18:33:15.358Z,3.34
2023-01-09T18:35:43.663Z,3.26
2023-01-09T18:38:12.057Z,3.49
2023-01-09T18:40:41.691Z,3.52
2023-01-09T18:43:11.533Z,3.55
2023-01-09T18:45:40.111Z,3.40
2023-01-09T18:48:09.562Z,3.51
2023-01-09T18:50:38.813Z,3.46
2023-01-09T18:53:07.507Z,3.45
2023-01-09T18:55:37.513Z,3.13
2023-01-09T18:58:05.976Z,3.32
2023-01-09T19:00:33.862Z,3.39
2023-01-09T19:03:01.797Z,3.39
2023-01-09T19:05:29.933Z,3.40
2023-01-09T19:07:59.141Z,3.45
2023-01-09T19:10:26.992Z,3.30
2023-01-09T19:12:54.835Z,3.40
2023-01-09T19:15:23.902Z,3.41
2023-01-09T19:17:51.898Z,3.45
2023-01-09T19:20:20.146Z,3.03
2023-01-09T19:22:48.028Z,3.47
2023-01-09T19:25:17.460Z,3.43
2023-01-09T19:27:45.313Z,3.28
2023-01-09T19:30:14.685Z,3.46
2023-01-09T19:32:42.526Z,3.31
2023-01-09T19:35:10.714Z,3.00
2023-01-09T19:37:38.614Z,3.17
2023-01-09T19:40:07.660Z,3.09
2023-01-09T19:42:36.913Z,3.29
2023-01-09T19:45:05.905Z,3.44
2023-01-09T19:47:36.082Z,3.44
2023-01-09T19:50:05.256Z,3.17
2023-01-09T19:52:33.238Z,3.31
2023-01-09T19:55:01.275Z,3.46
2023-01-09T19:57:29.177Z,3.45
2023-01-09T19:59:58.462Z,3.46
2023-01-09T20:02:28.000Z,3.37
2023-01-09T20:04:56.153Z,3.46
2023-01-09T20:07:24.089Z,3.24
2023-01-09T20:09:51.987Z,3.36
2023-01-09T20:12:20.054Z,3.48
2023-01-09T20:14:48.259Z,3.45
2023-01-09T20:17:17.947Z,3.25
2023-01-09T20:19:47.439Z,3.24
2023-01-09T20:22:15.366Z,3.48
2023-01-09T20:24:43.936Z,3.46
2023-01-09T20:27:12.260Z,3.33
2023-01-09T20:29:40.155Z,3.45
2023-01-09T20:32:08.941Z,3.43
2023-01-09T20:34:38.206Z,3.26
2023-01-09T20:37:06.172Z,3.42
2023-01-09T20:39:34.037Z,2.95
2023-01-09T20:42:01.912Z,3.25
2023-01-09T20:44:29.938Z,3.31
2023-01-09T20:46:57.905Z,3.21
2023-01-09T20:49:25.863Z,3.26
2023-01-09T20:51:55.126Z,3.30
2023-01-09T20:54:23.482Z,3.14
2023-01-09T20:56:52.090Z,3.29
2023-01-09T20:59:22.046Z,3.08
2023-01-09T21:01:50.213Z,3.19
2023-01-09T21:04:18.916Z,3.31
2023-01-09T21:06:49.667Z,3.29
2023-01-09T21:09:20.332Z,1.84
2023-01-09T21:11:48.280Z,3.27
2023-01-09T21:14:16.263Z,3.29
2023-01-09T21:16:53.825Z,3.07
2023-01-09T21:19:22.717Z,3.23
2023-01-09T21:21:53.062Z,3.33
2023-01-09T21:24:22.718Z,2.96
2023-01-09T21:26:50.574Z,3.31
2023-01-09T21:29:18.471Z,3.30
2023-01-09T21:31:46.530Z,3.35
2023-01-09T21:34:14.882Z,3.36
2023-01-09T21:36:44.895Z,3.37
2023-01-09T21:39:12.886Z,3.22
2023-01-09T21:42:02.031Z,3.35
2023-01-09T21:44:48.139Z,3.25
2023-01-09T21:47:16.301Z,3.37
2023-01-09T21:49:45.651Z,2.90
2023-01-09T21:52:14.963Z,2.87
2023-01-09T21:54:43.096Z,3.00
2023-01-09T21:57:13.047Z,3.23
2023-01-09T21:59:40.911Z,3.19
2023-01-09T22:02:12.382Z,3.19
2023-01-09T22:04:42.862Z,3.16
2023-01-09T22:07:11.234Z,3.05
2023-01-09T22:09:39.162Z,3.18
2023-01-09T22:12:07.502Z,3.18
2023-01-09T22:14:38.833Z,3.11
2023-01-09T22:17:06.815Z,3.09
2023-01-09T22:19:34.658Z,3.11
2023-01-09T22:22:07.187Z,3.06
2023-01-09T22:24:35.998Z,3.07
2023-01-09T22:27:04.145Z,3.18
2023-01-09T22:29:32.000Z,3.19
2023-01-09T22:32:01.269Z,2.92
2023-01-09T22:34:29.381Z,3.25
2023-01-09T22:36:57.338Z,2.93
2023-01-09T22:39:25.500Z,3.28
2023-01-09T22:41:55.154Z,2.98
2023-01-09T22:44:23.124Z,3.27
2023-01-09T22:46:50.995Z,3.24
2023-01-09T22:49:20.192Z,3.05
2023-01-09T22:51:48.552Z,3.24
2023-01-09T22:54:16.742Z,3.25
2023-01-09T22:56:44.983Z,3.25
2023-01-09T22:59:15.292Z,3.18
2023-01-09T23:01:43.437Z,3.27
2023-01-09T23:04:14.085Z,2.96
2023-01-09T23:06:46.299Z,3.28
2023-01-09T23:09:14.640Z,3.18
2023-01-09T23:11:59.835Z,3.30
2023-01-09T23:14:27.836Z,3.21
2023-01-09T23:16:56.298Z,2.83
2023-01-09T23:19:24.324Z,3.22
2023-01-09T23:21:53.626Z,3.12
2023-01-09T23:24:23.965Z,2.94
2023-01-09T23:26:52.248Z,3.30
2023-01-09T23:29:20.700Z,3.30
2023-01-09T23:31:53.511Z,3.20
2023-01-09T23:34:24.316Z,3.21
2023-01-09T23:36:55.458Z,3.11
2023-01-09T23:39:26.495Z,2.50
2023-01-09T23:42:11.668Z,3.09
2023-01-09T23:44:39.509Z,2.99
2023-01-09T23:47:07.404Z,3.05
2023-01-09T23:49:35.328Z,3.03
2023-01-09T23:52:06.104Z,3.00
2023-01-09T23:54:36.707Z,2.97
2023-01-09T23:57:04.984Z,2.86
2023-01-09T23:59:33.103Z,2.97
